Terminal Aerodrome Forecast
Issued by NWS

Home | Current Version | Previous Version | Text Only | Print | Product List | Glossary On
Versions: 1 2 3 4 5 6 7 8 9 10 11 12 13 14 15 16 17 18
512
FTUS41 KBTV 141135
TAFMSS
TAF
KMSS 141135Z 1412/1512 26006KT P6SM SKC
     FM150000 21006KT P6SM FEW200=

USA.gov is the U.S. government's official web portal to all federal, state and local government web resources and services.